Northwest Junior College, Mississippi
Current Conditions -  °F | °C
As of 11:15 PM on Monday 22 Dec 2014 (Local Time) from KUOX Reporting Station
Thunderstorm Thunderstorm  
Wind Chill: 55°   Ceiling: 200
Heat Index: 55°   Visibility: 3mi
Dew Point: 55°   Wind: 6mph
Humidity: 100%   Direction: 150°SSE
Pressure: 29.7"   Gusts: NA
Location:  34.6336°N, 89.8203°W
Report Text: KUOX 230515Z AUTO 15005KT 3SM VCTS BR BKN002 OVC060 13/13 A2970 RMK AO2 LTG DSNT E PWINO PNO
Loading
Personal Weather Stations






























Interactive Weather Map New forecast layout! Learn more

10-Day Weather Forecast

Advertisements
Track Severe Weather on mobile